createdAt,value
2018-03-26T00:00:37.636Z,53.3
2018-03-26T00:01:28.376Z,53.3
2018-03-26T00:02:17.966Z,53.4
2018-03-26T00:03:08.204Z,53.6
2018-03-26T00:03:57.251Z,53.8
2018-03-26T00:04:47.607Z,54
2018-03-26T00:05:38.281Z,54.3
2018-03-26T00:06:28.261Z,54.5
2018-03-26T00:07:19.289Z,54.8
2018-03-26T00:08:07.724Z,55
2018-03-26T00:08:58.409Z,55.2
2018-03-26T00:09:48.846Z,55.4
2018-03-26T00:10:38.887Z,55.5
2018-03-26T00:11:29.262Z,55.7
2018-03-26T00:12:18.403Z,55.9
2018-03-26T00:13:08.124Z,56.1
2018-03-26T00:13:58.830Z,56.2
2018-03-26T00:14:49.549Z,56.3
2018-03-26T00:15:39.311Z,56.3
2018-03-26T00:16:27.762Z,56.3
2018-03-26T00:17:18.753Z,56.3
2018-03-26T00:18:08.136Z,56.3
2018-03-26T00:18:59.041Z,56.3
2018-03-26T00:19:46.914Z,56.3
2018-03-26T00:20:37.105Z,56.4
2018-03-26T00:21:27.858Z,56.5
2018-03-26T00:22:18.923Z,56.6
2018-03-26T00:23:08.158Z,56.8
2018-03-26T00:23:58.435Z,56.8
2018-03-26T00:24:48.938Z,56.8
2018-03-26T00:25:38.812Z,56.4
2018-03-26T00:26:29.930Z,56.1
2018-03-26T00:27:18.668Z,55.6
2018-03-26T00:28:09.059Z,55
2018-03-26T00:28:58.782Z,54.4
2018-03-26T00:29:48.283Z,53.8
2018-03-26T00:30:38.877Z,53
2018-03-26T00:31:28.663Z,52.2
2018-03-26T00:32:18.437Z,51.4
2018-03-26T00:33:08.919Z,50.6
2018-03-26T00:34:00.560Z,49.8
2018-03-26T00:34:48.773Z,49.1
2018-03-26T00:35:38.602Z,48.3
2018-03-26T00:36:28.793Z,47.6
2018-03-26T00:37:19.828Z,46.9
2018-03-26T00:38:09.537Z,46.3
2018-03-26T00:38:58.029Z,45.6
2018-03-26T00:39:49.877Z,44.9
2018-03-26T00:40:39.739Z,44.3
2018-03-26T00:41:30.105Z,43.8
2018-03-26T00:42:21.066Z,43.4
2018-03-26T00:43:10.564Z,43.1
2018-03-26T00:43:59.943Z,42.9
2018-03-26T00:44:49.887Z,42.8
2018-03-26T00:45:40.152Z,42.8
2018-03-26T00:46:31.426Z,42.8
2018-03-26T00:47:21.102Z,42.9
2018-03-26T00:48:12.252Z,43
2018-03-26T00:49:02.311Z,43.2
2018-03-26T00:49:52.437Z,43.4
2018-03-26T00:50:42.498Z,43.6
2018-03-26T00:51:31.794Z,43.8
2018-03-26T00:52:22.368Z,43.9
2018-03-26T00:53:11.899Z,44.1
2018-03-26T00:54:01.872Z,44.3
2018-03-26T00:54:51.492Z,44.4
2018-03-26T00:55:41.986Z,44.5
2018-03-26T00:56:32.644Z,44.6
2018-03-26T00:57:22.085Z,44.6
2018-03-26T00:58:11.903Z,44.7
2018-03-26T00:59:02.802Z,44.7
2018-03-26T00:59:51.755Z,44.8
2018-03-26T01:00:42.084Z,44.8
2018-03-26T01:01:32.576Z,44.8
2018-03-26T01:02:22.461Z,44.8
2018-03-26T01:03:12.443Z,44.8
2018-03-26T01:04:02.767Z,44.8
2018-03-26T01:04:53.174Z,44.9
2018-03-26T01:05:42.784Z,44.8
2018-03-26T01:06:33.526Z,44.8
2018-03-26T01:07:23.612Z,44.8
2018-03-26T01:08:13.686Z,44.8
2018-03-26T01:09:02.882Z,44.8
2018-03-26T01:09:53.498Z,44.8
2018-03-26T01:10:43.858Z,44.8
2018-03-26T01:11:33.293Z,44.8
2018-03-26T01:12:23.095Z,44.8
2018-03-26T01:13:14.275Z,44.8
2018-03-26T01:14:04.039Z,44.7
2018-03-26T01:14:53.259Z,44.7
2018-03-26T01:15:43.304Z,44.7
2018-03-26T01:16:33.388Z,44.6
2018-03-26T01:17:24.001Z,44.7
2018-03-26T01:18:11.681Z,44.6
2018-03-26T01:19:02.209Z,44.6
2018-03-26T01:19:51.785Z,44.6
2018-03-26T01:20:43.024Z,44.6
2018-03-26T01:21:32.591Z,44.6
2018-03-26T01:22:23.115Z,44.6
2018-03-26T01:23:12.580Z,44.5
2018-03-26T01:24:02.343Z,44.5
2018-03-26T01:24:53.302Z,44.5
2018-03-26T01:25:43.287Z,44.5
2018-03-26T01:26:33.193Z,44.4
2018-03-26T01:27:22.546Z,44.4
2018-03-26T01:28:14.025Z,44.4
2018-03-26T01:29:03.579Z,44.4
2018-03-26T01:29:53.645Z,44.4
2018-03-26T01:30:43.082Z,44.4
2018-03-26T01:31:34.135Z,44.4
2018-03-26T01:32:22.926Z,44.4
2018-03-26T01:33:13.018Z,44.3
2018-03-26T01:34:03.230Z,44.3
2018-03-26T01:34:54.162Z,44.3
2018-03-26T01:35:43.332Z,44.3
2018-03-26T01:36:33.333Z,44.3
2018-03-26T01:37:24.494Z,44.2
2018-03-26T01:38:13.530Z,44.2
2018-03-26T01:39:04.059Z,44.1
2018-03-26T01:39:53.599Z,44.1
2018-03-26T01:40:43.494Z,44.1
2018-03-26T01:41:34.034Z,44
2018-03-26T01:42:25.097Z,44
2018-03-26T01:43:14.958Z,44
2018-03-26T01:44:04.352Z,43.9
2018-03-26T01:44:54.592Z,43.9
2018-03-26T01:45:45.169Z,43.9
2018-03-26T01:46:33.750Z,43.9
2018-03-26T01:47:24.399Z,43.8
2018-03-26T01:48:14.441Z,43.8
2018-03-26T01:49:05.321Z,43.8
2018-03-26T01:49:54.629Z,43.7
2018-03-26T01:50:43.919Z,43.7
2018-03-26T01:51:34.626Z,43.7
2018-03-26T01:52:24.589Z,43.6
2018-03-26T01:53:15.236Z,43.6
2018-03-26T01:54:05.417Z,43.6
2018-03-26T01:54:55.423Z,43.6
2018-03-26T01:55:44.708Z,43.5
2018-03-26T01:56:35.657Z,43.4
2018-03-26T01:57:24.446Z,43.4
2018-03-26T01:58:14.323Z,43.4
2018-03-26T01:59:05.943Z,43.3
2018-03-26T01:59:55.943Z,43.3
2018-03-26T02:00:46.726Z,43.3
2018-03-26T02:01:36.550Z,43.2
2018-03-26T02:02:25.156Z,43.2
2018-03-26T02:03:15.485Z,43.1
2018-03-26T02:04:04.765Z,43.1
2018-03-26T02:04:55.453Z,43.1
2018-03-26T02:05:45.598Z,43
2018-03-26T02:06:36.538Z,43
2018-03-26T02:07:25.157Z,42.9
2018-03-26T02:08:15.198Z,42.9
2018-03-26T02:09:05.333Z,42.9
2018-03-26T02:09:55.434Z,42.8
2018-03-26T02:10:46.559Z,42.8
2018-03-26T02:11:36.152Z,42.8
2018-03-26T02:12:25.466Z,42.8
2018-03-26T02:13:16.188Z,42.7
2018-03-26T02:14:05.386Z,42.6
2018-03-26T02:14:55.995Z,42.6
2018-03-26T02:15:46.245Z,42.6
2018-03-26T02:16:35.912Z,42.6
2018-03-26T02:17:26.943Z,42.5
2018-03-26T02:18:15.531Z,42.4
2018-03-26T02:19:07.053Z,42.4
2018-03-26T02:19:56.152Z,42.4
2018-03-26T02:20:47.337Z,42.4
2018-03-26T02:21:36.971Z,42.3
2018-03-26T02:22:25.337Z,42.3
2018-03-26T02:23:16.006Z,42.3
2018-03-26T02:24:07.119Z,42.2
2018-03-26T02:24:56.538Z,42.2
2018-03-26T02:25:47.061Z,42.1
2018-03-26T02:26:36.238Z,42.1
2018-03-26T02:27:26.453Z,42.1
2018-03-26T02:28:16.552Z,42.1
2018-03-26T02:29:06.185Z,42
2018-03-26T02:29:56.252Z,41.9
2018-03-26T02:30:46.231Z,41.9
2018-03-26T02:31:36.480Z,41.9
2018-03-26T02:32:27.732Z,41.9
2018-03-26T02:33:16.133Z,41.9
2018-03-26T02:34:06.562Z,41.9
2018-03-26T02:34:57.504Z,41.8
2018-03-26T02:35:46.466Z,41.8
2018-03-26T02:36:37.848Z,41.8
2018-03-26T02:37:25.993Z,41.8
2018-03-26T02:38:18.528Z,41.7
2018-03-26T02:39:07.831Z,41.6
2018-03-26T02:39:57.933Z,41.6
2018-03-26T02:40:48.131Z,41.6
2018-03-26T02:41:37.663Z,41.5
2018-03-26T02:42:28.805Z,41.5
2018-03-26T02:43:18.382Z,41.4
2018-03-26T02:44:08.910Z,41.1
2018-03-26T02:44:58.598Z,40.8
2018-03-26T02:45:47.839Z,40.4
2018-03-26T02:46:38.396Z,40.1
2018-03-26T02:47:28.573Z,39.7
2018-03-26T02:48:20.115Z,39.3
2018-03-26T02:49:07.865Z,38.9
2018-03-26T02:49:59.093Z,38.4
2018-03-26T02:50:50.182Z,38.1
2018-03-26T02:51:39.647Z,37.6
2018-03-26T02:52:29.088Z,37.2
2018-03-26T02:53:17.953Z,36.8
2018-03-26T02:54:09.117Z,36.5
2018-03-26T02:54:59.319Z,36.1
2018-03-26T02:55:46.971Z,35.8
2018-03-26T02:56:39.928Z,35.5
2018-03-26T02:57:29.052Z,35.2
2018-03-26T02:58:18.771Z,34.9
2018-03-26T02:59:09.443Z,34.7
2018-03-26T03:00:00.113Z,34.4
2018-03-26T03:00:49.570Z,34.3
2018-03-26T03:01:38.724Z,34.1
2018-03-26T03:02:29.987Z,33.9
2018-03-26T03:03:21.795Z,33.8
2018-03-26T03:04:11.073Z,33.7
2018-03-26T03:05:00.783Z,33.6
2018-03-26T03:05:51.152Z,33.5
2018-03-26T03:06:40.633Z,33.4
2018-03-26T03:07:31.252Z,33.4
2018-03-26T03:08:21.596Z,33.3
2018-03-26T03:09:12.202Z,33.3
2018-03-26T03:10:01.410Z,33.2
2018-03-26T03:10:51.792Z,33.2
2018-03-26T03:11:41.206Z,33.1
2018-03-26T03:12:32.142Z,33.1
2018-03-26T03:13:21.925Z,33.1
2018-03-26T03:14:12.243Z,33.1
2018-03-26T03:15:01.486Z,33
2018-03-26T03:15:52.672Z,33
2018-03-26T03:16:41.909Z,33
2018-03-26T03:17:32.481Z,33
2018-03-26T03:18:22.816Z,32.9
2018-03-26T03:19:12.077Z,32.9
2018-03-26T03:20:02.311Z,32.9
2018-03-26T03:20:52.378Z,32.9
2018-03-26T03:21:42.703Z,32.9
2018-03-26T03:22:33.036Z,32.9
2018-03-26T03:23:22.571Z,32.8
2018-03-26T03:24:12.888Z,32.8
2018-03-26T03:25:03.013Z,32.8
2018-03-26T03:25:52.809Z,32.8
2018-03-26T03:26:42.266Z,32.8
2018-03-26T03:27:32.029Z,32.8
2018-03-26T03:28:21.821Z,32.8
2018-03-26T03:29:11.129Z,32.8
2018-03-26T03:30:02.501Z,32.8
2018-03-26T03:30:51.622Z,32.7
2018-03-26T03:31:42.062Z,32.7
2018-03-26T03:32:30.323Z,32.7
2018-03-26T03:33:22.056Z,32.7
2018-03-26T03:34:10.875Z,32.6
2018-03-26T03:35:02.056Z,32.6
2018-03-26T03:35:53.036Z,32.6
2018-03-26T03:36:41.335Z,32.5
2018-03-26T03:37:30.784Z,32.4
2018-03-26T03:38:21.936Z,32.4
2018-03-26T03:39:11.657Z,32.4
2018-03-26T03:40:02.286Z,32.3
2018-03-26T03:40:51.810Z,32.3
2018-03-26T03:41:43.638Z,32.3
2018-03-26T03:42:32.646Z,32.2
2018-03-26T03:43:22.577Z,32.2
2018-03-26T03:44:12.338Z,32.1
2018-03-26T03:45:02.667Z,32.1
2018-03-26T03:45:51.978Z,32.1
2018-03-26T03:46:41.904Z,32
2018-03-26T03:47:32.730Z,32
2018-03-26T03:48:22.416Z,32
2018-03-26T03:49:12.165Z,31.9
2018-03-26T03:50:03.091Z,31.9
2018-03-26T03:50:54.230Z,31.9
2018-03-26T03:51:42.935Z,31.9
2018-03-26T03:52:32.287Z,31.9
2018-03-26T03:53:23.840Z,31.8
2018-03-26T03:54:13.472Z,31.8
2018-03-26T03:55:03.058Z,31.8
2018-03-26T03:55:53.702Z,31.8
2018-03-26T03:56:42.961Z,31.8
2018-03-26T03:57:33.402Z,31.8
2018-03-26T03:58:23.207Z,31.7
2018-03-26T03:59:12.924Z,31.7
2018-03-26T04:00:03.706Z,31.7
2018-03-26T04:00:53.664Z,31.7
2018-03-26T04:01:43.143Z,31.6
2018-03-26T04:02:33.641Z,31.6
2018-03-26T04:03:24.061Z,31.6
2018-03-26T04:04:13.663Z,31.6
2018-03-26T04:05:03.726Z,31.6
2018-03-26T04:05:53.878Z,31.6
2018-03-26T04:06:44.204Z,31.6
2018-03-26T04:07:33.468Z,31.5
2018-03-26T04:08:24.496Z,31.5
2018-03-26T04:09:14.116Z,31.5
2018-03-26T04:10:05.250Z,31.4
2018-03-26T04:10:53.003Z,31.4
2018-03-26T04:11:42.792Z,31.4
2018-03-26T04:12:35.243Z,31.4
2018-03-26T04:13:24.985Z,31.4
2018-03-26T04:14:13.986Z,31.4
2018-03-26T04:15:05.785Z,31.3
2018-03-26T04:15:54.001Z,31.3
2018-03-26T04:16:45.205Z,31.3
2018-03-26T04:17:35.165Z,31.3
2018-03-26T04:18:25.393Z,31.3
2018-03-26T04:19:13.902Z,31.3
2018-03-26T04:20:04.736Z,31.2
2018-03-26T04:20:55.200Z,31.2
2018-03-26T04:21:45.253Z,31.2
2018-03-26T04:22:34.524Z,31.1
2018-03-26T04:23:24.196Z,31.1
2018-03-26T04:24:15.717Z,31.1
2018-03-26T04:25:05.289Z,31.1
2018-03-26T04:25:55.374Z,31.1
2018-03-26T04:26:45.686Z,31.1
2018-03-26T04:27:34.871Z,31
2018-03-26T04:28:25.499Z,31
2018-03-26T04:29:14.667Z,31
2018-03-26T04:30:04.941Z,30.9
2018-03-26T04:30:56.546Z,30.9
2018-03-26T04:31:46.478Z,30.9
2018-03-26T04:32:36.193Z,30.9
2018-03-26T04:33:27.155Z,30.9
2018-03-26T04:34:16.003Z,30.9
2018-03-26T04:35:06.243Z,30.9
2018-03-26T04:35:55.523Z,30.8
2018-03-26T04:36:46.392Z,30.8
2018-03-26T04:37:36.641Z,30.8
2018-03-26T04:38:26.568Z,30.8
2018-03-26T04:39:16.068Z,30.7
2018-03-26T04:40:05.221Z,30.7
2018-03-26T04:40:57.355Z,30.7
2018-03-26T04:41:46.134Z,30.6
2018-03-26T04:42:36.383Z,30.6
2018-03-26T04:43:26.232Z,30.6
2018-03-26T04:44:15.981Z,30.6
2018-03-26T04:45:05.895Z,30.6
2018-03-26T04:45:56.699Z,30.6
2018-03-26T04:46:45.765Z,30.5
2018-03-26T04:47:38.022Z,30.5
2018-03-26T04:48:26.548Z,30.5
2018-03-26T04:49:17.147Z,30.4
2018-03-26T04:50:07.208Z,30.4
2018-03-26T04:50:56.352Z,30.4
2018-03-26T04:51:46.994Z,30.4
2018-03-26T04:52:37.261Z,30.4
2018-03-26T04:53:27.070Z,30.4
2018-03-26T04:54:16.806Z,30.3
2018-03-26T04:55:06.930Z,30.3
2018-03-26T04:55:58.639Z,30.3
2018-03-26T04:56:47.324Z,30.3
2018-03-26T04:57:37.404Z,30.3
2018-03-26T04:58:27.914Z,30.2
2018-03-26T04:59:17.647Z,30.2
2018-03-26T05:00:07.974Z,30.2
2018-03-26T05:00:56.832Z,30.1
2018-03-26T05:01:47.866Z,30.1
2018-03-26T05:02:37.962Z,30.1
2018-03-26T05:03:28.339Z,30.1
2018-03-26T05:04:18.214Z,30.1
2018-03-26T05:05:07.724Z,30.1
2018-03-26T05:05:57.354Z,30
2018-03-26T05:06:47.810Z,30
2018-03-26T05:07:37.872Z,30
2018-03-26T05:08:27.936Z,29.9
2018-03-26T05:09:18.855Z,29.9
2018-03-26T05:10:08.363Z,29.9
2018-03-26T05:10:57.320Z,29.9
2018-03-26T05:11:48.257Z,29.9
2018-03-26T05:12:38.459Z,29.8
2018-03-26T05:13:29.734Z,29.8
2018-03-26T05:14:19.180Z,29.8
2018-03-26T05:15:09.114Z,29.8
2018-03-26T05:15:59.436Z,29.8
2018-03-26T05:16:48.668Z,29.8
2018-03-26T20:17:54.056Z,16.6
2018-03-26T20:18:43.561Z,16.6
2018-03-26T20:19:33.722Z,16.6
2018-03-26T20:20:23.374Z,16.6
2018-03-26T20:21:12.558Z,16.6
2018-03-26T20:22:03.756Z,16.6
2018-03-26T20:22:53.532Z,16.5
2018-03-26T20:23:43.587Z,16.5
2018-03-26T20:24:33.983Z,16.6
2018-03-26T20:25:23.944Z,16.6
2018-03-26T20:26:14.073Z,16.5
2018-03-26T20:27:04.159Z,16.5
2018-03-26T20:27:54.217Z,16.5
2018-03-26T20:28:44.515Z,16.5
2018-03-26T20:29:34.245Z,16.5
2018-03-26T20:30:24.591Z,16.5
2018-03-26T20:31:12.616Z,16.5
2018-03-26T20:32:02.843Z,16.4
2018-03-26T20:32:51.743Z,16.4
2018-03-26T20:33:43.190Z,16.4
2018-03-26T20:34:32.833Z,16.4
2018-03-26T20:35:22.631Z,16.4
2018-03-26T20:36:12.438Z,16.4
2018-03-26T20:37:03.033Z,16.4
2018-03-26T20:37:53.347Z,16.4
2018-03-26T20:38:42.800Z,16.4
2018-03-26T20:39:33.311Z,16.4
2018-03-26T20:40:24.827Z,16.4
2018-03-26T20:41:15.273Z,16.4
2018-03-26T20:42:05.531Z,16.4
2018-03-26T20:42:55.207Z,16.4
2018-03-26T20:43:45.550Z,16.4
2018-03-26T20:44:35.335Z,16.4
2018-03-26T20:45:25.350Z,16.4
2018-03-26T20:46:15.540Z,16.4
2018-03-26T20:47:05.003Z,16.4
2018-03-26T20:47:54.958Z,16.4
2018-03-26T20:48:45.336Z,16.4
2018-03-26T20:49:35.793Z,16.4
2018-03-26T20:50:25.444Z,16.4
2018-03-26T20:51:15.246Z,16.4
2018-03-26T20:52:05.895Z,16.3
2018-03-26T20:52:55.917Z,16.3
2018-03-26T20:53:45.464Z,16.3
2018-03-26T20:54:36.248Z,16.3
2018-03-26T20:55:25.782Z,16.3
2018-03-26T20:56:16.437Z,16.3
2018-03-26T20:57:06.129Z,16.3
2018-03-26T20:57:56.529Z,16.3
2018-03-26T20:58:46.311Z,16.3
2018-03-26T20:59:36.610Z,16.3
2018-03-26T21:00:26.369Z,16.3
2018-03-26T21:01:16.193Z,16.3
2018-03-26T21:02:06.806Z,16.3
2018-03-26T21:02:56.575Z,16.3
2018-03-26T21:03:46.602Z,16.3
2018-03-26T21:04:36.686Z,16.3
2018-03-26T21:05:27.018Z,16.3
2018-03-26T21:06:17.454Z,16.3
2018-03-26T21:07:06.900Z,16.3
2018-03-26T21:07:56.512Z,16.3
2018-03-26T21:08:47.075Z,16.3
2018-03-26T21:09:37.053Z,16.3
2018-03-26T21:10:26.276Z,16.3
2018-03-26T21:11:16.839Z,16.3
2018-03-26T21:12:07.263Z,16.2
2018-03-26T21:12:56.773Z,16.3
2018-03-26T21:13:47.309Z,16.2
2018-03-26T21:14:37.419Z,16.2
2018-03-26T21:15:26.941Z,16.2
2018-03-26T21:16:16.940Z,16.2
2018-03-26T21:17:07.299Z,16.2
2018-03-26T21:17:57.348Z,16.2
2018-03-26T21:18:46.632Z,16.1
2018-03-26T21:19:37.542Z,16.2
2018-03-26T21:20:27.778Z,16.1
2018-03-26T21:21:17.836Z,16.2
2018-03-26T21:22:07.373Z,16.1
2018-03-26T21:22:57.357Z,16.1
2018-03-26T21:23:47.176Z,16.1
2018-03-26T21:24:37.948Z,16.1
2018-03-26T21:25:27.572Z,16.1
2018-03-26T21:26:17.679Z,16.1
2018-03-26T21:27:07.397Z,16.1
2018-03-26T21:27:58.260Z,16.1
2018-03-26T21:28:48.113Z,16.1
2018-03-26T21:29:38.171Z,16.1
2018-03-26T21:30:28.288Z,16.1
2018-03-26T21:31:18.230Z,16.1
2018-03-26T21:32:09.353Z,16.1
2018-03-26T21:32:58.647Z,16.1
2018-03-26T21:33:48.715Z,16.1
2018-03-26T21:34:38.533Z,16.1
2018-03-26T21:35:27.972Z,16.1
2018-03-26T21:36:18.287Z,16.1
2018-03-26T21:37:08.920Z,16.1
2018-03-26T21:37:59.003Z,16.1
2018-03-26T21:38:48.791Z,16.1
2018-03-26T21:39:39.062Z,16.1
2018-03-26T21:40:28.402Z,16.1
2018-03-26T21:41:17.700Z,16
2018-03-26T21:42:07.746Z,16
2018-03-26T21:42:57.830Z,16
2018-03-26T21:43:46.290Z,16
2018-03-26T21:44:38.437Z,16
2018-03-26T21:45:27.810Z,16
2018-03-26T21:46:16.950Z,16
2018-03-26T21:47:07.560Z,16
2018-03-26T21:47:57.742Z,15.9
2018-03-26T21:48:47.797Z,16
2018-03-26T21:49:38.209Z,15.9
2018-03-26T21:50:27.962Z,15.9
2018-03-26T21:51:18.337Z,15.9
2018-03-26T21:52:08.587Z,15.9
2018-03-26T21:52:58.667Z,15.9
2018-03-26T21:53:47.642Z,15.9
2018-03-26T21:54:38.479Z,15.9
2018-03-26T21:55:28.734Z,15.9
2018-03-26T21:56:17.707Z,15.9
2018-03-26T21:57:07.639Z,15.9
2018-03-26T21:57:58.251Z,15.9
2018-03-26T21:58:48.037Z,15.9
2018-03-26T21:59:38.589Z,15.9
2018-03-26T22:00:28.692Z,15.9
2018-03-26T22:01:18.344Z,15.9
2018-03-26T22:02:09.081Z,15.9
2018-03-26T22:02:59.644Z,15.9
2018-03-26T22:03:47.723Z,15.9
2018-03-26T22:04:38.621Z,15.9
2018-03-26T22:05:29.741Z,15.9
2018-03-26T22:06:18.981Z,15.9
2018-03-26T22:07:08.481Z,15.8
2018-03-26T22:08:00.526Z,15.9
2018-03-26T22:08:49.946Z,15.9
2018-03-26T22:09:39.731Z,15.9
2018-03-26T22:10:29.059Z,15.9
2018-03-26T22:11:19.428Z,15.8
2018-03-26T22:12:09.308Z,15.8
2018-03-26T22:12:59.253Z,15.8
2018-03-26T22:13:50.015Z,15.8
2018-03-26T22:14:39.558Z,15.8
2018-03-26T22:15:29.998Z,15.8
2018-03-26T22:16:20.673Z,15.8
2018-03-26T22:17:09.857Z,15.8
2018-03-26T22:18:00.462Z,15.8
2018-03-26T22:18:50.150Z,15.8
2018-03-26T22:19:40.836Z,15.8
2018-03-26T22:20:29.948Z,15.8
2018-03-26T22:21:21.083Z,15.8
2018-03-26T22:22:10.894Z,15.8
2018-03-26T22:22:59.045Z,15.8
2018-03-26T22:23:49.369Z,15.8
2018-03-26T22:24:40.655Z,15.8
2018-03-26T22:25:30.247Z,15.8
2018-03-26T22:26:21.209Z,15.8
2018-03-26T22:27:11.342Z,15.8
2018-03-26T22:27:59.698Z,15.8
2018-03-26T22:28:50.627Z,15.7
2018-03-26T22:29:40.307Z,15.7
2018-03-26T22:30:31.285Z,15.7
2018-03-26T22:31:20.952Z,15.7
2018-03-26T22:32:11.437Z,15.7
2018-03-26T22:33:00.252Z,15.7
2018-03-26T22:33:51.354Z,15.7
2018-03-26T22:34:40.722Z,15.7
2018-03-26T22:35:31.332Z,15.7
2018-03-26T22:36:20.841Z,15.7
2018-03-26T22:37:11.005Z,15.7
2018-03-26T22:38:02.042Z,15.7
2018-03-26T22:38:50.551Z,15.6
2018-03-26T22:39:41.367Z,15.6
2018-03-26T22:40:31.006Z,15.6
2018-03-26T22:41:21.700Z,15.6
2018-03-26T22:42:12.224Z,15.6
2018-03-26T22:43:01.576Z,15.6
2018-03-26T22:43:52.583Z,15.6
2018-03-26T22:44:42.697Z,15.6
2018-03-26T22:45:31.369Z,15.6
2018-03-26T22:46:22.023Z,15.6
2018-03-26T22:47:11.140Z,15.6
2018-03-26T22:48:01.672Z,15.6
2018-03-26T22:48:52.131Z,15.6
2018-03-26T22:49:42.156Z,15.6
2018-03-26T22:50:32.253Z,15.6
2018-03-26T22:51:22.661Z,15.6
2018-03-26T22:52:12.097Z,15.6
2018-03-26T22:53:02.824Z,15.6
2018-03-26T22:53:52.710Z,15.6
2018-03-26T22:54:42.677Z,15.6
2018-03-26T22:55:33.141Z,15.6
2018-03-26T22:56:22.427Z,15.6
2018-03-26T22:57:13.141Z,15.6
2018-03-26T22:58:02.179Z,15.5
2018-03-26T22:58:52.012Z,15.5
2018-03-26T22:59:43.243Z,15.5
2018-03-26T23:00:33.673Z,15.5
2018-03-26T23:01:22.503Z,15.5
2018-03-26T23:02:13.231Z,15.6
2018-03-26T23:03:02.386Z,15.5
2018-03-26T23:03:52.701Z,15.5
2018-03-26T23:04:44.590Z,15.5
2018-03-26T23:05:33.339Z,15.5
2018-03-26T23:06:23.963Z,15.5
2018-03-26T23:07:13.550Z,15.5
2018-03-26T23:08:02.360Z,15.5
2018-03-26T23:08:53.170Z,15.5
2018-03-26T23:09:43.129Z,15.5
2018-03-26T23:10:34.034Z,15.5
2018-03-26T23:11:23.714Z,15.5
2018-03-26T23:12:13.304Z,15.4
2018-03-26T23:13:03.427Z,15.4
2018-03-26T23:13:53.142Z,15.4
2018-03-26T23:14:43.519Z,15.4
2018-03-26T23:15:35.180Z,15.4
2018-03-26T23:16:23.736Z,15.4
2018-03-26T23:17:14.194Z,15.4
2018-03-26T23:18:03.721Z,15.4
2018-03-26T23:18:55.035Z,15.4
2018-03-26T23:19:43.659Z,15.4
2018-03-26T23:20:35.391Z,15.4
2018-03-26T23:21:24.037Z,15.4
2018-03-26T23:22:14.021Z,15.4
2018-03-26T23:23:05.181Z,15.4
2018-03-26T23:23:55.569Z,15.4
2018-03-26T23:24:44.003Z,15.4
2018-03-26T23:25:33.538Z,15.4
2018-03-26T23:26:24.418Z,15.4
2018-03-26T23:27:14.748Z,15.4
2018-03-26T23:28:04.649Z,15.4
2018-03-26T23:28:54.394Z,15.4
2018-03-26T23:29:45.699Z,15.4
2018-03-26T23:30:34.581Z,15.4
2018-03-26T23:31:24.411Z,15.4
2018-03-26T23:32:14.676Z,15.4
2018-03-26T23:33:06.298Z,15.4
2018-03-26T23:33:54.090Z,15.4
2018-03-26T23:34:44.748Z,15.4
2018-03-26T23:35:35.697Z,15.3
2018-03-26T23:36:26.134Z,15.4
2018-03-26T23:37:15.176Z,15.4
2018-03-26T23:38:04.292Z,15.4
2018-03-26T23:38:54.127Z,15.3
2018-03-26T23:39:46.270Z,15.3
2018-03-26T23:40:35.220Z,15.3
2018-03-26T23:41:26.111Z,15.3
2018-03-26T23:42:15.355Z,15.3
2018-03-26T23:43:06.455Z,15.3
2018-03-26T23:43:55.413Z,15.3
2018-03-26T23:44:45.355Z,15.3
2018-03-26T23:45:35.926Z,15.3
2018-03-26T23:46:25.028Z,15.3
2018-03-26T23:47:15.263Z,15.3
2018-03-26T23:48:05.954Z,15.3
2018-03-26T23:48:55.881Z,15.3
2018-03-26T23:49:47.001Z,15.3
2018-03-26T23:50:36.277Z,15.3
2018-03-26T23:51:26.930Z,15.3
2018-03-26T23:52:16.260Z,15.3
2018-03-26T23:53:05.567Z,15.3
2018-03-26T23:53:57.257Z,15.3
2018-03-26T23:54:46.272Z,15.3
2018-03-26T23:55:36.522Z,15.3
2018-03-26T23:56:27.272Z,15.3
2018-03-26T23:57:17.656Z,15.3
2018-03-26T23:58:06.606Z,15.3
2018-03-26T23:58:57.132Z,15.3
2018-03-26T23:59:47.000Z,15.3
